West Islip, New York
Current Conditions -  °F | °C
As of 6:56 PM on Wednesday 26 Nov 2014 (Local Time) from KISP Reporting Station
Light Rain Light Rain  
Wind Chill: 28°   Ceiling: 900
Heat Index: 38°   Visibility: 4mi
Dew Point: 34°   Wind: 18mph
Humidity: 86%   Direction: 360°N
Pressure: 29.69"   Gusts: 28mph
Location:  40.71°N, 73.29°W
Report Text: KISP 262356Z 36016G24KT 4SM -RA BR BKN009 OVC016 03/01 A2969 RMK AO2 PK WND 36029/2257 SLP053 P0005 60053 T00330011 10039 20033 55030
Loading
Personal Weather Stations






























Interactive Weather Map New forecast layout! Learn more

10-Day Weather Forecast

Advertisements
Track Severe Weather on mobile